sensor_id;sensor_type;location;lat;lon;timestamp;P1;durP1;ratioP1;P2;durP2;ratioP2
15643;SDS011;7921;43.586;1.408;2023-12-20T00:00:34;9.97;;;9.07;;
15643;SDS011;7921;43.586;1.408;2023-12-20T00:03:00;9.87;;;8.97;;
15643;SDS011;7921;43.586;1.408;2023-12-20T00:05:25;9.70;;;8.80;;
15643;SDS011;7921;43.586;1.408;2023-12-20T00:07:50;10.17;;;9.17;;
15643;SDS011;7921;43.586;1.408;2023-12-20T00:10:16;9.97;;;9.07;;
15643;SDS011;7921;43.586;1.408;2023-12-20T00:12:41;10.33;;;9.43;;
15643;SDS011;7921;43.586;1.408;2023-12-20T00:15:06;10.33;;;9.43;;
15643;SDS011;7921;43.586;1.408;2023-12-20T00:17:32;11.33;;;9.70;;
15643;SDS011;7921;43.586;1.408;2023-12-20T00:19:57;9.87;;;8.87;;
15643;SDS011;7921;43.586;1.408;2023-12-20T00:22:23;10.20;;;8.80;;
15643;SDS011;7921;43.586;1.408;2023-12-20T00:24:48;9.80;;;8.70;;
15643;SDS011;7921;43.586;1.408;2023-12-20T00:27:13;9.60;;;8.67;;
15643;SDS011;7921;43.586;1.408;2023-12-20T00:29:39;9.57;;;8.60;;
15643;SDS011;7921;43.586;1.408;2023-12-20T00:32:04;9.77;;;8.73;;
15643;SDS011;7921;43.586;1.408;2023-12-20T00:34:30;9.53;;;8.63;;
15643;SDS011;7921;43.586;1.408;2023-12-20T00:36:55;9.17;;;8.37;;
15643;SDS011;7921;43.586;1.408;2023-12-20T00:39:20;9.57;;;8.77;;
15643;SDS011;7921;43.586;1.408;2023-12-20T00:41:46;9.53;;;8.63;;
15643;SDS011;7921;43.586;1.408;2023-12-20T00:44:11;8.47;;;7.67;;
15643;SDS011;7921;43.586;1.408;2023-12-20T00:46:37;9.00;;;8.10;;
15643;SDS011;7921;43.586;1.408;2023-12-20T00:49:02;9.40;;;8.53;;
15643;SDS011;7921;43.586;1.408;2023-12-20T00:51:27;9.30;;;8.50;;
15643;SDS011;7921;43.586;1.408;2023-12-20T00:53:53;9.10;;;8.20;;
15643;SDS011;7921;43.586;1.408;2023-12-20T00:56:20;9.03;;;8.13;;
15643;SDS011;7921;43.586;1.408;2023-12-20T00:58:45;9.50;;;8.60;;
15643;SDS011;7921;43.586;1.408;2023-12-20T01:01:11;9.73;;;8.83;;
15643;SDS011;7921;43.586;1.408;2023-12-20T01:03:36;9.30;;;8.50;;
15643;SDS011;7921;43.586;1.408;2023-12-20T01:06:01;9.40;;;8.50;;
15643;SDS011;7921;43.586;1.408;2023-12-20T01:08:27;10.40;;;9.43;;
15643;SDS011;7921;43.586;1.408;2023-12-20T01:10:52;10.13;;;9.13;;
15643;SDS011;7921;43.586;1.408;2023-12-20T01:13:17;9.63;;;8.67;;
15643;SDS011;7921;43.586;1.408;2023-12-20T01:15:43;9.97;;;9.07;;
15643;SDS011;7921;43.586;1.408;2023-12-20T01:18:08;9.60;;;8.70;;
15643;SDS011;7921;43.586;1.408;2023-12-20T01:20:33;10.23;;;9.23;;
15643;SDS011;7921;43.586;1.408;2023-12-20T01:22:59;9.87;;;8.97;;
15643;SDS011;7921;43.586;1.408;2023-12-20T01:25:26;9.30;;;8.50;;
15643;SDS011;7921;43.586;1.408;2023-12-20T01:27:51;9.47;;;8.57;;
15643;SDS011;7921;43.586;1.408;2023-12-20T01:30:16;8.87;;;8.07;;
15643;SDS011;7921;43.586;1.408;2023-12-20T01:32:42;9.67;;;8.77;;
15643;SDS011;7921;43.586;1.408;2023-12-20T01:35:07;9.77;;;8.87;;
15643;SDS011;7921;43.586;1.408;2023-12-20T01:37:32;9.57;;;8.67;;
15643;SDS011;7921;43.586;1.408;2023-12-20T01:39:58;9.23;;;8.33;;
15643;SDS011;7921;43.586;1.408;2023-12-20T01:42:23;9.47;;;8.57;;
15643;SDS011;7921;43.586;1.408;2023-12-20T01:44:49;9.40;;;8.60;;
15643;SDS011;7921;43.586;1.408;2023-12-20T01:47:14;9.30;;;8.50;;
15643;SDS011;7921;43.586;1.408;2023-12-20T01:49:39;8.90;;;8.00;;
15643;SDS011;7921;43.586;1.408;2023-12-20T01:52:05;8.03;;;7.33;;
15643;SDS011;7921;43.586;1.408;2023-12-20T01:54:31;8.13;;;7.43;;
15643;SDS011;7921;43.586;1.408;2023-12-20T01:56:56;9.00;;;8.30;;
15643;SDS011;7921;43.586;1.408;2023-12-20T01:59:22;8.73;;;8.03;;
15643;SDS011;7921;43.586;1.408;2023-12-20T02:01:47;8.17;;;7.47;;
15643;SDS011;7921;43.586;1.408;2023-12-20T02:04:13;8.53;;;7.83;;
15643;SDS011;7921;43.586;1.408;2023-12-20T02:06:38;8.60;;;7.80;;
15643;SDS011;7921;43.586;1.408;2023-12-20T02:09:05;7.67;;;6.97;;
15643;SDS011;7921;43.586;1.408;2023-12-20T02:11:30;8.40;;;7.63;;
15643;SDS011;7921;43.586;1.408;2023-12-20T02:13:56;9.00;;;8.20;;
15643;SDS011;7921;43.586;1.408;2023-12-20T02:16:21;8.33;;;7.53;;
15643;SDS011;7921;43.586;1.408;2023-12-20T02:18:47;7.93;;;7.23;;
15643;SDS011;7921;43.586;1.408;2023-12-20T02:21:12;8.20;;;7.50;;
15643;SDS011;7921;43.586;1.408;2023-12-20T02:23:38;7.63;;;6.93;;
15643;SDS011;7921;43.586;1.408;2023-12-20T02:26:03;8.03;;;7.33;;
15643;SDS011;7921;43.586;1.408;2023-12-20T02:28:29;8.37;;;7.60;;
15643;SDS011;7921;43.586;1.408;2023-12-20T02:30:55;8.43;;;7.63;;
15643;SDS011;7921;43.586;1.408;2023-12-20T02:33:20;7.70;;;7.00;;
15643;SDS011;7921;43.586;1.408;2023-12-20T02:35:46;8.43;;;6.87;;
15643;SDS011;7921;43.586;1.408;2023-12-20T02:38:12;9.33;;;8.43;;
15643;SDS011;7921;43.586;1.408;2023-12-20T02:40:37;7.53;;;6.83;;
15643;SDS011;7921;43.586;1.408;2023-12-20T02:43:03;7.90;;;7.10;;
15643;SDS011;7921;43.586;1.408;2023-12-20T02:45:28;7.07;;;6.50;;
15643;SDS011;7921;43.586;1.408;2023-12-20T02:47:54;7.50;;;6.80;;
15643;SDS011;7921;43.586;1.408;2023-12-20T02:50:19;6.73;;;6.23;;
15643;SDS011;7921;43.586;1.408;2023-12-20T02:52:45;7.23;;;6.63;;
15643;SDS011;7921;43.586;1.408;2023-12-20T02:55:11;7.50;;;6.80;;
15643;SDS011;7921;43.586;1.408;2023-12-20T02:57:36;7.23;;;6.63;;
15643;SDS011;7921;43.586;1.408;2023-12-20T03:00:06;7.13;;;6.63;;
15643;SDS011;7921;43.586;1.408;2023-12-20T03:02:35;7.00;;;6.50;;
15643;SDS011;7921;43.586;1.408;2023-12-20T03:05:01;7.03;;;6.43;;
15643;SDS011;7921;43.586;1.408;2023-12-20T03:07:27;7.60;;;6.90;;
15643;SDS011;7921;43.586;1.408;2023-12-20T03:09:52;7.57;;;6.97;;
15643;SDS011;7921;43.586;1.408;2023-12-20T03:12:17;7.60;;;7.00;;
15643;SDS011;7921;43.586;1.408;2023-12-20T03:14:43;7.60;;;7.00;;
15643;SDS011;7921;43.586;1.408;2023-12-20T03:17:09;6.80;;;6.20;;
15643;SDS011;7921;43.586;1.408;2023-12-20T03:19:34;7.00;;;6.40;;
15643;SDS011;7921;43.586;1.408;2023-12-20T03:22:00;7.13;;;6.50;;
15643;SDS011;7921;43.586;1.408;2023-12-20T03:24:26;6.87;;;6.33;;
15643;SDS011;7921;43.586;1.408;2023-12-20T03:26:51;7.60;;;6.90;;
15643;SDS011;7921;43.586;1.408;2023-12-20T03:29:16;9.00;;;8.30;;
15643;SDS011;7921;43.586;1.408;2023-12-20T03:31:42;7.57;;;6.97;;
15643;SDS011;7921;43.586;1.408;2023-12-20T03:34:07;7.23;;;6.57;;
15643;SDS011;7921;43.586;1.408;2023-12-20T03:36:32;7.70;;;7.07;;
15643;SDS011;7921;43.586;1.408;2023-12-20T03:38:58;7.60;;;7.00;;
15643;SDS011;7921;43.586;1.408;2023-12-20T03:41:23;6.73;;;6.23;;
15643;SDS011;7921;43.586;1.408;2023-12-20T03:43:49;6.93;;;6.43;;
15643;SDS011;7921;43.586;1.408;2023-12-20T03:46:14;8.40;;;7.70;;
15643;SDS011;7921;43.586;1.408;2023-12-20T03:48:39;8.07;;;7.37;;
15643;SDS011;7921;43.586;1.408;2023-12-20T03:51:05;7.77;;;7.07;;
15643;SDS011;7921;43.586;1.408;2023-12-20T03:53:30;7.97;;;7.30;;
15643;SDS011;7921;43.586;1.408;2023-12-20T03:55:55;7.47;;;6.77;;
15643;SDS011;7921;43.586;1.408;2023-12-20T03:58:21;8.67;;;7.97;;
15643;SDS011;7921;43.586;1.408;2023-12-20T04:00:46;7.90;;;7.27;;
15643;SDS011;7921;43.586;1.408;2023-12-20T04:03:11;8.13;;;7.50;;
15643;SDS011;7921;43.586;1.408;2023-12-20T04:05:39;7.50;;;6.90;;
15643;SDS011;7921;43.586;1.408;2023-12-20T04:08:05;6.90;;;6.30;;
15643;SDS011;7921;43.586;1.408;2023-12-20T04:10:30;7.03;;;6.43;;
15643;SDS011;7921;43.586;1.408;2023-12-20T04:12:56;7.03;;;6.43;;
15643;SDS011;7921;43.586;1.408;2023-12-20T04:15:21;7.23;;;6.63;;
15643;SDS011;7921;43.586;1.408;2023-12-20T04:17:47;6.83;;;6.27;;
15643;SDS011;7921;43.586;1.408;2023-12-20T04:20:12;7.17;;;6.57;;
15643;SDS011;7921;43.586;1.408;2023-12-20T04:22:37;6.90;;;6.40;;
15643;SDS011;7921;43.586;1.408;2023-12-20T04:25:03;6.90;;;6.30;;
15643;SDS011;7921;43.586;1.408;2023-12-20T04:27:28;6.80;;;6.30;;
15643;SDS011;7921;43.586;1.408;2023-12-20T04:29:54;6.80;;;6.20;;
15643;SDS011;7921;43.586;1.408;2023-12-20T04:32:19;6.73;;;6.03;;
15643;SDS011;7921;43.586;1.408;2023-12-20T04:34:44;6.43;;;5.93;;
15643;SDS011;7921;43.586;1.408;2023-12-20T04:37:10;5.73;;;5.30;;
15643;SDS011;7921;43.586;1.408;2023-12-20T04:39:35;6.90;;;6.30;;
15643;SDS011;7921;43.586;1.408;2023-12-20T04:42:00;6.70;;;6.20;;
15643;SDS011;7921;43.586;1.408;2023-12-20T04:44:26;6.03;;;5.53;;
15643;SDS011;7921;43.586;1.408;2023-12-20T04:46:51;6.13;;;5.63;;
15643;SDS011;7921;43.586;1.408;2023-12-20T04:49:17;5.10;;;4.70;;
15643;SDS011;7921;43.586;1.408;2023-12-20T04:51:42;4.77;;;4.40;;
15643;SDS011;7921;43.586;1.408;2023-12-20T04:54:07;5.03;;;4.57;;
15643;SDS011;7921;43.586;1.408;2023-12-20T04:56:33;4.50;;;4.20;;
15643;SDS011;7921;43.586;1.408;2023-12-20T04:58:58;4.27;;;3.97;;
15643;SDS011;7921;43.586;1.408;2023-12-20T05:01:24;4.60;;;4.20;;
15643;SDS011;7921;43.586;1.408;2023-12-20T05:03:49;4.00;;;3.70;;
15643;SDS011;7921;43.586;1.408;2023-12-20T05:06:15;3.83;;;3.53;;
15643;SDS011;7921;43.586;1.408;2023-12-20T05:08:40;3.63;;;3.33;;
15643;SDS011;7921;43.586;1.408;2023-12-20T05:11:05;3.50;;;3.20;;
15643;SDS011;7921;43.586;1.408;2023-12-20T05:13:31;3.60;;;3.40;;
15643;SDS011;7921;43.586;1.408;2023-12-20T05:15:56;3.70;;;3.40;;
15643;SDS011;7921;43.586;1.408;2023-12-20T05:18:22;3.33;;;3.13;;
15643;SDS011;7921;43.586;1.408;2023-12-20T05:20:48;3.43;;;3.23;;
15643;SDS011;7921;43.586;1.408;2023-12-20T05:23:14;3.57;;;3.27;;
15643;SDS011;7921;43.586;1.408;2023-12-20T05:25:39;2.90;;;2.70;;
15643;SDS011;7921;43.586;1.408;2023-12-20T05:28:05;3.60;;;3.00;;
15643;SDS011;7921;43.586;1.408;2023-12-20T05:30:30;2.87;;;2.67;;
15643;SDS011;7921;43.586;1.408;2023-12-20T05:32:56;2.40;;;2.30;;
15643;SDS011;7921;43.586;1.408;2023-12-20T05:35:21;2.97;;;2.70;;
15643;SDS011;7921;43.586;1.408;2023-12-20T05:37:48;2.50;;;2.30;;
15643;SDS011;7921;43.586;1.408;2023-12-20T05:40:13;2.60;;;2.40;;
15643;SDS011;7921;43.586;1.408;2023-12-20T05:42:39;2.57;;;2.37;;
15643;SDS011;7921;43.586;1.408;2023-12-20T05:45:04;2.03;;;1.93;;
15643;SDS011;7921;43.586;1.408;2023-12-20T05:47:30;2.23;;;2.03;;
15643;SDS011;7921;43.586;1.408;2023-12-20T05:49:56;2.40;;;2.20;;
15643;SDS011;7921;43.586;1.408;2023-12-20T05:52:21;1.97;;;1.87;;
15643;SDS011;7921;43.586;1.408;2023-12-20T05:54:47;2.10;;;2.00;;
15643;SDS011;7921;43.586;1.408;2023-12-20T05:57:12;2.23;;;2.00;;
15643;SDS011;7921;43.586;1.408;2023-12-20T05:59:38;2.00;;;1.90;;
15643;SDS011;7921;43.586;1.408;2023-12-20T06:02:03;1.80;;;1.70;;
15643;SDS011;7921;43.586;1.408;2023-12-20T06:04:29;2.07;;;1.90;;
15643;SDS011;7921;43.586;1.408;2023-12-20T06:06:55;1.63;;;1.53;;
15643;SDS011;7921;43.586;1.408;2023-12-20T06:09:20;1.87;;;1.77;;
15643;SDS011;7921;43.586;1.408;2023-12-20T06:11:45;1.70;;;1.60;;
15643;SDS011;7921;43.586;1.408;2023-12-20T06:14:11;1.93;;;1.67;;
15643;SDS011;7921;43.586;1.408;2023-12-20T06:16:36;1.53;;;1.43;;
15643;SDS011;7921;43.586;1.408;2023-12-20T06:19:02;1.83;;;1.73;;
15643;SDS011;7921;43.586;1.408;2023-12-20T06:21:27;1.60;;;1.50;;
15643;SDS011;7921;43.586;1.408;2023-12-20T06:23:52;1.80;;;1.70;;
15643;SDS011;7921;43.586;1.408;2023-12-20T06:26:18;2.10;;;2.00;;
15643;SDS011;7921;43.586;1.408;2023-12-20T06:28:43;1.83;;;1.73;;
15643;SDS011;7921;43.586;1.408;2023-12-20T06:31:08;1.70;;;1.60;;
15643;SDS011;7921;43.586;1.408;2023-12-20T06:33:34;1.60;;;1.50;;
15643;SDS011;7921;43.586;1.408;2023-12-20T06:35:59;2.93;;;1.60;;
15643;SDS011;7921;43.586;1.408;2023-12-20T06:38:25;2.10;;;1.90;;
15643;SDS011;7921;43.586;1.408;2023-12-20T06:40:50;2.00;;;1.67;;
15643;SDS011;7921;43.586;1.408;2023-12-20T06:43:15;1.90;;;1.80;;
15643;SDS011;7921;43.586;1.408;2023-12-20T06:45:41;1.43;;;1.33;;
15643;SDS011;7921;43.586;1.408;2023-12-20T06:48:06;1.60;;;1.50;;
15643;SDS011;7921;43.586;1.408;2023-12-20T06:50:32;2.00;;;1.63;;
15643;SDS011;7921;43.586;1.408;2023-12-20T06:52:57;1.77;;;1.67;;
15643;SDS011;7921;43.586;1.408;2023-12-20T06:55:23;1.47;;;1.40;;
15643;SDS011;7921;43.586;1.408;2023-12-20T06:57:48;1.50;;;1.40;;
15643;SDS011;7921;43.586;1.408;2023-12-20T07:00:14;1.83;;;1.40;;
15643;SDS011;7921;43.586;1.408;2023-12-20T07:02:40;1.30;;;1.20;;
15643;SDS011;7921;43.586;1.408;2023-12-20T07:05:05;1.03;;;1.03;;
15643;SDS011;7921;43.586;1.408;2023-12-20T07:07:31;1.23;;;1.10;;
15643;SDS011;7921;43.586;1.408;2023-12-20T07:09:56;1.10;;;1.10;;
15643;SDS011;7921;43.586;1.408;2023-12-20T07:12:22;1.00;;;1.00;;
15643;SDS011;7921;43.586;1.408;2023-12-20T07:14:47;1.17;;;1.17;;
15643;SDS011;7921;43.586;1.408;2023-12-20T07:17:13;1.10;;;1.00;;
15643;SDS011;7921;43.586;1.408;2023-12-20T07:19:39;1.00;;;1.00;;
15643;SDS011;7921;43.586;1.408;2023-12-20T07:22:05;1.00;;;1.00;;
15643;SDS011;7921;43.586;1.408;2023-12-20T07:24:31;1.40;;;1.30;;
15643;SDS011;7921;43.586;1.408;2023-12-20T07:26:56;1.50;;;1.40;;
15643;SDS011;7921;43.586;1.408;2023-12-20T07:29:22;1.50;;;1.40;;
15643;SDS011;7921;43.586;1.408;2023-12-20T07:31:47;1.90;;;1.80;;
15643;SDS011;7921;43.586;1.408;2023-12-20T07:34:12;1.60;;;1.50;;
15643;SDS011;7921;43.586;1.408;2023-12-20T07:36:38;1.40;;;1.30;;
15643;SDS011;7921;43.586;1.408;2023-12-20T07:39:03;1.40;;;1.30;;
15643;SDS011;7921;43.586;1.408;2023-12-20T07:41:28;1.50;;;1.40;;
15643;SDS011;7921;43.586;1.408;2023-12-20T07:43:54;1.73;;;1.47;;
15643;SDS011;7921;43.586;1.408;2023-12-20T07:46:20;1.40;;;1.30;;
15643;SDS011;7921;43.586;1.408;2023-12-20T07:48:47;1.30;;;1.30;;
15643;SDS011;7921;43.586;1.408;2023-12-20T07:51:13;1.20;;;1.20;;
15643;SDS011;7921;43.586;1.408;2023-12-20T07:53:38;1.90;;;1.20;;
15643;SDS011;7921;43.586;1.408;2023-12-20T07:56:13;1.10;;;1.10;;
15643;SDS011;7921;43.586;1.408;2023-12-20T07:58:45;1.70;;;1.60;;
15643;SDS011;7921;43.586;1.408;2023-12-20T08:01:10;2.27;;;2.07;;
15643;SDS011;7921;43.586;1.408;2023-12-20T08:03:36;1.50;;;1.40;;
15643;SDS011;7921;43.586;1.408;2023-12-20T08:06:02;1.47;;;1.37;;
15643;SDS011;7921;43.586;1.408;2023-12-20T08:08:27;1.20;;;1.10;;
15643;SDS011;7921;43.586;1.408;2023-12-20T08:10:53;4.33;;;1.97;;
15643;SDS011;7921;43.586;1.408;2023-12-20T08:13:18;1.10;;;1.10;;
15643;SDS011;7921;43.586;1.408;2023-12-20T08:15:44;1.30;;;1.20;;
15643;SDS011;7921;43.586;1.408;2023-12-20T08:18:09;1.20;;;1.20;;
15643;SDS011;7921;43.586;1.408;2023-12-20T08:20:34;0.90;;;0.90;;
15643;SDS011;7921;43.586;1.408;2023-12-20T08:22:59;1.70;;;1.60;;
15643;SDS011;7921;43.586;1.408;2023-12-20T08:25:25;1.30;;;1.20;;
15643;SDS011;7921;43.586;1.408;2023-12-20T08:27:51;1.67;;;1.57;;
15643;SDS011;7921;43.586;1.408;2023-12-20T08:30:16;1.30;;;1.20;;
15643;SDS011;7921;43.586;1.408;2023-12-20T08:32:47;1.13;;;1.13;;
15643;SDS011;7921;43.586;1.408;2023-12-20T08:35:13;1.37;;;1.27;;
15643;SDS011;7921;43.586;1.408;2023-12-20T08:37:38;0.93;;;0.93;;
15643;SDS011;7921;43.586;1.408;2023-12-20T08:40:04;1.40;;;1.30;;
15643;SDS011;7921;43.586;1.408;2023-12-20T08:42:30;1.57;;;1.47;;
15643;SDS011;7921;43.586;1.408;2023-12-20T08:44:57;1.50;;;1.20;;
15643;SDS011;7921;43.586;1.408;2023-12-20T08:47:23;1.30;;;1.20;;
15643;SDS011;7921;43.586;1.408;2023-12-20T08:49:49;1.20;;;1.20;;
15643;SDS011;7921;43.586;1.408;2023-12-20T08:52:14;1.47;;;1.30;;
15643;SDS011;7921;43.586;1.408;2023-12-20T08:54:39;1.70;;;1.60;;
15643;SDS011;7921;43.586;1.408;2023-12-20T08:57:05;1.60;;;1.50;;
15643;SDS011;7921;43.586;1.408;2023-12-20T08:59:32;1.50;;;1.40;;
15643;SDS011;7921;43.586;1.408;2023-12-20T09:01:57;1.53;;;1.43;;
15643;SDS011;7921;43.586;1.408;2023-12-20T09:04:23;1.60;;;1.50;;
15643;SDS011;7921;43.586;1.408;2023-12-20T09:06:48;1.70;;;1.60;;
15643;SDS011;7921;43.586;1.408;2023-12-20T09:09:14;1.53;;;1.43;;
15643;SDS011;7921;43.586;1.408;2023-12-20T09:11:39;1.80;;;1.60;;
15643;SDS011;7921;43.586;1.408;2023-12-20T09:14:05;1.73;;;1.63;;
15643;SDS011;7921;43.586;1.408;2023-12-20T09:16:31;1.57;;;1.47;;
15643;SDS011;7921;43.586;1.408;2023-12-20T09:18:56;1.80;;;1.70;;
15643;SDS011;7921;43.586;1.408;2023-12-20T09:21:22;1.93;;;1.23;;
15643;SDS011;7921;43.586;1.408;2023-12-20T09:23:47;1.73;;;1.43;;
15643;SDS011;7921;43.586;1.408;2023-12-20T09:26:12;4.40;;;1.67;;
15643;SDS011;7921;43.586;1.408;2023-12-20T09:28:38;2.23;;;1.60;;
15643;SDS011;7921;43.586;1.408;2023-12-20T09:31:05;1.60;;;1.13;;
15643;SDS011;7921;43.586;1.408;2023-12-20T09:33:30;1.40;;;1.23;;
15643;SDS011;7921;43.586;1.408;2023-12-20T09:35:56;1.90;;;1.70;;
15643;SDS011;7921;43.586;1.408;2023-12-20T09:38:21;1.60;;;1.47;;
15643;SDS011;7921;43.586;1.408;2023-12-20T09:40:47;1.20;;;1.20;;
15643;SDS011;7921;43.586;1.408;2023-12-20T09:43:15;1.20;;;1.10;;
15643;SDS011;7921;43.586;1.408;2023-12-20T09:45:45;1.40;;;1.10;;
15643;SDS011;7921;43.586;1.408;2023-12-20T09:48:11;1.23;;;1.17;;
15643;SDS011;7921;43.586;1.408;2023-12-20T09:50:39;1.20;;;1.10;;
15643;SDS011;7921;43.586;1.408;2023-12-20T09:53:05;1.20;;;1.07;;
15643;SDS011;7921;43.586;1.408;2023-12-20T09:55:34;1.50;;;1.10;;
15643;SDS011;7921;43.586;1.408;2023-12-20T09:58:03;1.17;;;1.07;;
15643;SDS011;7921;43.586;1.408;2023-12-20T10:00:29;1.13;;;1.00;;
15643;SDS011;7921;43.586;1.408;2023-12-20T10:02:58;3.00;;;1.40;;
15643;SDS011;7921;43.586;1.408;2023-12-20T10:05:28;1.27;;;1.00;;
15643;SDS011;7921;43.586;1.408;2023-12-20T10:07:57;1.30;;;1.20;;
15643;SDS011;7921;43.586;1.408;2023-12-20T10:10:22;1.37;;;1.03;;
15643;SDS011;7921;43.586;1.408;2023-12-20T10:13:00;1.87;;;1.53;;
15643;SDS011;7921;43.586;1.408;2023-12-20T10:15:27;1.10;;;1.00;;
15643;SDS011;7921;43.586;1.408;2023-12-20T10:17:53;3.90;;;1.13;;
15643;SDS011;7921;43.586;1.408;2023-12-20T10:20:19;2.50;;;1.10;;
15643;SDS011;7921;43.586;1.408;2023-12-20T10:22:45;1.33;;;1.13;;
15643;SDS011;7921;43.586;1.408;2023-12-20T10:25:11;1.80;;;1.10;;
15643;SDS011;7921;43.586;1.408;2023-12-20T10:27:36;1.10;;;1.00;;
15643;SDS011;7921;43.586;1.408;2023-12-20T10:30:02;1.00;;;1.00;;
15643;SDS011;7921;43.586;1.408;2023-12-20T10:32:27;1.30;;;1.10;;
15643;SDS011;7921;43.586;1.408;2023-12-20T10:34:53;2.60;;;1.20;;
15643;SDS011;7921;43.586;1.408;2023-12-20T10:37:19;1.87;;;1.30;;
15643;SDS011;7921;43.586;1.408;2023-12-20T10:39:54;1.73;;;1.00;;
15643;SDS011;7921;43.586;1.408;2023-12-20T10:42:24;1.70;;;1.00;;
15643;SDS011;7921;43.586;1.408;2023-12-20T10:44:51;1.57;;;1.23;;
15643;SDS011;7921;43.586;1.408;2023-12-20T10:47:18;1.20;;;0.90;;
15643;SDS011;7921;43.586;1.408;2023-12-20T10:49:44;1.27;;;1.10;;
15643;SDS011;7921;43.586;1.408;2023-12-20T10:52:11;1.10;;;1.00;;
15643;SDS011;7921;43.586;1.408;2023-12-20T10:54:37;1.10;;;1.00;;
15643;SDS011;7921;43.586;1.408;2023-12-20T10:57:05;1.77;;;1.10;;
15643;SDS011;7921;43.586;1.408;2023-12-20T10:59:32;1.53;;;1.00;;
15643;SDS011;7921;43.586;1.408;2023-12-20T11:01:58;1.37;;;1.10;;
15643;SDS011;7921;43.586;1.408;2023-12-20T11:05:13;1.63;;;1.00;;
15643;SDS011;7921;43.586;1.408;2023-12-20T11:07:32;1.20;;;1.10;;
15643;SDS011;7921;43.586;1.408;2023-12-20T11:13:27;1.80;;;1.00;;
15643;SDS011;7921;43.586;1.408;2023-12-20T11:15:55;1.10;;;1.00;;
15643;SDS011;7921;43.586;1.408;2023-12-20T11:18:22;2.23;;;1.20;;
15643;SDS011;7921;43.586;1.408;2023-12-20T11:20:59;1.73;;;1.00;;
15643;SDS011;7921;43.586;1.408;2023-12-20T11:23:26;1.57;;;1.13;;
15643;SDS011;7921;43.586;1.408;2023-12-20T11:25:52;1.20;;;1.10;;
15643;SDS011;7921;43.586;1.408;2023-12-20T11:28:22;1.77;;;1.10;;
15643;SDS011;7921;43.586;1.408;2023-12-20T11:30:52;1.20;;;0.83;;
15643;SDS011;7921;43.586;1.408;2023-12-20T11:33:23;1.23;;;1.10;;
15643;SDS011;7921;43.586;1.408;2023-12-20T11:35:49;3.83;;;1.07;;
15643;SDS011;7921;43.586;1.408;2023-12-20T11:38:15;2.27;;;1.37;;
15643;SDS011;7921;43.586;1.408;2023-12-20T11:40:41;1.37;;;0.87;;
15643;SDS011;7921;43.586;1.408;2023-12-20T11:43:07;1.33;;;0.80;;
15643;SDS011;7921;43.586;1.408;2023-12-20T11:45:32;3.47;;;1.17;;
15643;SDS011;7921;43.586;1.408;2023-12-20T11:47:59;1.53;;;1.20;;
15643;SDS011;7921;43.586;1.408;2023-12-20T11:50:25;2.47;;;1.10;;
15643;SDS011;7921;43.586;1.408;2023-12-20T11:52:51;1.37;;;1.20;;
15643;SDS011;7921;43.586;1.408;2023-12-20T11:55:17;2.00;;;1.10;;
15643;SDS011;7921;43.586;1.408;2023-12-20T11:57:43;2.50;;;0.97;;
15643;SDS011;7921;43.586;1.408;2023-12-20T12:00:10;2.73;;;0.90;;
15643;SDS011;7921;43.586;1.408;2023-12-20T12:02:35;3.33;;;0.97;;
15643;SDS011;7921;43.586;1.408;2023-12-20T12:05:01;1.93;;;1.00;;
15643;SDS011;7921;43.586;1.408;2023-12-20T12:07:28;1.17;;;0.97;;
15643;SDS011;7921;43.586;1.408;2023-12-20T12:09:53;1.20;;;0.90;;
15643;SDS011;7921;43.586;1.408;2023-12-20T12:12:19;1.63;;;0.83;;
15643;SDS011;7921;43.586;1.408;2023-12-20T12:14:45;1.20;;;1.00;;
15643;SDS011;7921;43.586;1.408;2023-12-20T12:17:11;1.10;;;1.00;;
15643;SDS011;7921;43.586;1.408;2023-12-20T12:19:40;1.23;;;1.13;;
15643;SDS011;7921;43.586;1.408;2023-12-20T12:22:06;2.17;;;1.00;;
15643;SDS011;7921;43.586;1.408;2023-12-20T12:24:38;1.20;;;1.10;;
15643;SDS011;7921;43.586;1.408;2023-12-20T12:27:05;1.47;;;1.00;;
15643;SDS011;7921;43.586;1.408;2023-12-20T12:29:31;1.90;;;1.00;;
15643;SDS011;7921;43.586;1.408;2023-12-20T12:31:56;2.10;;;0.80;;
15643;SDS011;7921;43.586;1.408;2023-12-20T12:34:22;1.90;;;0.90;;
15643;SDS011;7921;43.586;1.408;2023-12-20T12:36:48;1.20;;;0.90;;
15643;SDS011;7921;43.586;1.408;2023-12-20T12:39:13;1.03;;;0.80;;
15643;SDS011;7921;43.586;1.408;2023-12-20T12:41:42;2.87;;;1.00;;
15643;SDS011;7921;43.586;1.408;2023-12-20T12:44:07;1.00;;;0.70;;
15643;SDS011;7921;43.586;1.408;2023-12-20T12:46:33;2.23;;;1.00;;
15643;SDS011;7921;43.586;1.408;2023-12-20T12:48:58;3.30;;;1.73;;
15643;SDS011;7921;43.586;1.408;2023-12-20T12:51:24;0.90;;;0.90;;
15643;SDS011;7921;43.586;1.408;2023-12-20T12:53:49;3.10;;;1.33;;
15643;SDS011;7921;43.586;1.408;2023-12-20T12:56:14;2.83;;;1.03;;
15643;SDS011;7921;43.586;1.408;2023-12-20T12:58:40;2.03;;;0.97;;
15643;SDS011;7921;43.586;1.408;2023-12-20T13:01:05;1.77;;;1.10;;
15643;SDS011;7921;43.586;1.408;2023-12-20T13:03:30;2.60;;;1.17;;
15643;SDS011;7921;43.586;1.408;2023-12-20T13:05:56;2.63;;;0.87;;
15643;SDS011;7921;43.586;1.408;2023-12-20T13:08:21;1.63;;;0.90;;
15643;SDS011;7921;43.586;1.408;2023-12-20T13:10:47;3.07;;;1.20;;
15643;SDS011;7921;43.586;1.408;2023-12-20T13:13:12;2.70;;;0.90;;
15643;SDS011;7921;43.586;1.408;2023-12-20T13:15:38;2.00;;;0.97;;
15643;SDS011;7921;43.586;1.408;2023-12-20T13:18:03;1.23;;;0.77;;
15643;SDS011;7921;43.586;1.408;2023-12-20T13:20:30;1.63;;;1.20;;
15643;SDS011;7921;43.586;1.408;2023-12-20T13:22:56;1.30;;;1.00;;
15643;SDS011;7921;43.586;1.408;2023-12-20T13:25:21;2.73;;;1.00;;
15643;SDS011;7921;43.586;1.408;2023-12-20T13:27:46;1.77;;;1.00;;
15643;SDS011;7921;43.586;1.408;2023-12-20T13:30:12;2.30;;;1.07;;
15643;SDS011;7921;43.586;1.408;2023-12-20T13:32:38;1.80;;;1.33;;
15643;SDS011;7921;43.586;1.408;2023-12-20T13:35:03;2.40;;;1.30;;
15643;SDS011;7921;43.586;1.408;2023-12-20T13:37:29;1.53;;;1.30;;
15643;SDS011;7921;43.586;1.408;2023-12-20T13:39:55;1.47;;;1.07;;
15643;SDS011;7921;43.586;1.408;2023-12-20T13:42:20;3.07;;;1.07;;
15643;SDS011;7921;43.586;1.408;2023-12-20T13:44:45;2.00;;;1.00;;
15643;SDS011;7921;43.586;1.408;2023-12-20T13:47:12;3.53;;;1.30;;
15643;SDS011;7921;43.586;1.408;2023-12-20T13:49:37;2.40;;;1.07;;
15643;SDS011;7921;43.586;1.408;2023-12-20T13:52:03;4.23;;;1.07;;
15643;SDS011;7921;43.586;1.408;2023-12-20T13:54:29;2.20;;;1.23;;
15643;SDS011;7921;43.586;1.408;2023-12-20T13:56:54;2.70;;;1.30;;
15643;SDS011;7921;43.586;1.408;2023-12-20T13:59:20;3.07;;;1.40;;
15643;SDS011;7921;43.586;1.408;2023-12-20T14:01:45;2.30;;;1.10;;
15643;SDS011;7921;43.586;1.408;2023-12-20T14:04:11;2.23;;;1.40;;
15643;SDS011;7921;43.586;1.408;2023-12-20T14:06:36;2.00;;;1.10;;
15643;SDS011;7921;43.586;1.408;2023-12-20T14:09:02;2.60;;;1.23;;
15643;SDS011;7921;43.586;1.408;2023-12-20T14:11:30;2.27;;;1.10;;
15643;SDS011;7921;43.586;1.408;2023-12-20T14:13:56;2.63;;;1.00;;
15643;SDS011;7921;43.586;1.408;2023-12-20T14:16:23;1.57;;;0.87;;
15643;SDS011;7921;43.586;1.408;2023-12-20T14:18:49;1.40;;;1.30;;
15643;SDS011;7921;43.586;1.408;2023-12-20T14:21:16;3.80;;;1.10;;
15643;SDS011;7921;43.586;1.408;2023-12-20T14:23:42;2.27;;;1.43;;
15643;SDS011;7921;43.586;1.408;2023-12-20T14:26:07;2.23;;;1.07;;
15643;SDS011;7921;43.586;1.408;2023-12-20T14:28:33;2.37;;;1.10;;
15643;SDS011;7921;43.586;1.408;2023-12-20T14:30:58;3.40;;;1.20;;
15643;SDS011;7921;43.586;1.408;2023-12-20T14:33:24;3.97;;;1.10;;
15643;SDS011;7921;43.586;1.408;2023-12-20T14:35:49;1.60;;;0.80;;
15643;SDS011;7921;43.586;1.408;2023-12-20T14:38:14;2.43;;;1.30;;
15643;SDS011;7921;43.586;1.408;2023-12-20T14:40:40;1.07;;;0.97;;
15643;SDS011;7921;43.586;1.408;2023-12-20T14:43:06;3.73;;;1.40;;
15643;SDS011;7921;43.586;1.408;2023-12-20T14:45:31;2.00;;;1.37;;
15643;SDS011;7921;43.586;1.408;2023-12-20T14:47:56;1.80;;;1.20;;
15643;SDS011;7921;43.586;1.408;2023-12-20T14:50:22;3.97;;;1.40;;
15643;SDS011;7921;43.586;1.408;2023-12-20T14:52:47;1.47;;;1.00;;
15643;SDS011;7921;43.586;1.408;2023-12-20T14:55:13;1.63;;;1.13;;